Time;durP1;ratioP1;P1;durP2;ratioP2;P2;SDS_P1;SDS_P2;PMS_P1;PMS_P2;Temp;Humidity;BMP_temperature;BMP_pressure;BME280_temperature;BME280_humidity;BME280_pressure;Samples;Min_cycle;Max_cycle;Signal;HPM_P1;HPM_P2
2022/10/17 00:00:38;;;;;;;3.80;2.90;;;;;;;;;;5033094;28;20574;-85
2022/10/17 00:03:05;;;;;;;3.40;2.77;;;;;;;;;;5032606;28;20237;-85
2022/10/17 00:05:32;;;;;;;6.73;3.20;;;;;;;;;;5039758;28;20209;-85
2022/10/17 00:08:00;;;;;;;2.90;2.70;;;;;;;;;;5052133;28;20241;-86
2022/10/17 00:10:28;;;;;;;4.37;3.00;;;;;;;;;;5052996;28;20693;-85
2022/10/17 00:12:55;;;;;;;5.83;3.57;;;;;;;;;;5052413;28;20236;-86
2022/10/17 00:15:22;;;;;;;4.07;3.30;;;;;;;;;;5052893;28;20214;-85
2022/10/17 00:17:49;;;;;;;4.63;3.70;;;;;;;;;;5051887;28;20242;-86
2022/10/17 00:20:16;;;;;;;3.60;3.30;;;;;;;;;;5059236;28;20581;-86
2022/10/17 00:22:43;;;;;;;5.03;3.50;;;;;;;;;;5053173;28;20234;-85
2022/10/17 00:25:12;;;;;;;3.20;2.90;;;;;;;;;;5070390;28;20211;-86
2022/10/17 00:27:40;;;;;;;3.10;2.80;;;;;;;;;;5068647;28;20229;-86
2022/10/17 00:30:08;;;;;;;7.90;3.93;;;;;;;;;;5043969;28;20233;-86
2022/10/17 00:32:35;;;;;;;2.83;2.63;;;;;;;;;;5043326;28;20238;-86
2022/10/17 00:35:02;;;;;;;2.80;2.60;;;;;;;;;;5052190;28;20692;-86
2022/10/17 00:37:30;;;;;;;5.50;3.03;;;;;;;;;;5041783;28;20230;-86
2022/10/17 00:39:57;;;;;;;4.30;2.90;;;;;;;;;;5032412;28;20252;-85
2022/10/17 00:42:26;;;;;;;4.30;2.77;;;;;;;;;;5031937;28;20241;-86
2022/10/17 00:45:01;;;;;;;4.10;2.90;;;;;;;;;;5032492;28;20214;-86
2022/10/17 00:47:28;;;;;;;5.77;2.63;;;;;;;;;;5031740;28;20857;-86
2022/10/17 00:49:55;;;;;;;7.57;2.87;;;;;;;;;;5032542;28;20231;-86
2022/10/17 00:52:24;;;;;;;11.57;3.03;;;;;;;;;;5040857;28;20226;-86
2022/10/17 00:54:53;;;;;;;4.60;3.13;;;;;;;;;;5051758;28;20568;-86
2022/10/17 00:57:20;;;;;;;5.10;3.13;;;;;;;;;;5039650;28;20235;-86
2022/10/17 00:59:50;;;;;;;4.67;2.97;;;;;;;;;;5048296;28;20217;-86
2022/10/17 01:02:19;;;;;;;7.00;3.10;;;;;;;;;;5051657;28;20285;-86
2022/10/17 01:04:48;;;;;;;3.27;2.63;;;;;;;;;;5045021;28;20203;-86
2022/10/17 01:07:15;;;;;;;2.50;2.30;;;;;;;;;;5046777;28;20244;-86
2022/10/17 01:09:43;;;;;;;3.47;3.17;;;;;;;;;;5051253;28;20707;-85
2022/10/17 01:12:13;;;;;;;3.97;3.10;;;;;;;;;;5051269;28;20198;-86
2022/10/17 01:14:45;;;;;;;6.00;3.53;;;;;;;;;;5051871;28;20209;-86
2022/10/17 01:17:17;;;;;;;7.60;2.73;;;;;;;;;;5051517;28;20199;-86
2022/10/17 01:19:59;;;;;;;4.97;3.00;;;;;;;;;;5052038;28;20236;-87
2022/10/17 01:22:27;;;;;;;4.43;2.60;;;;;;;;;;5049856;28;20595;-87
2022/10/17 01:25:09;;;;;;;3.80;2.90;;;;;;;;;;5032100;28;20207;-86
2022/10/17 01:27:54;;;;;;;2.67;2.47;;;;;;;;;;5031195;28;20235;-87
2022/10/17 01:30:32;;;;;;;4.63;2.83;;;;;;;;;;5044185;28;20233;-87
2022/10/17 01:33:06;;;;;;;7.77;2.73;;;;;;;;;;5054275;28;20230;-86
2022/10/17 01:35:37;;;;;;;4.43;2.27;;;;;;;;;;5049414;28;20198;-87
2022/10/17 01:38:07;;;;;;;6.00;2.87;;;;;;;;;;5036440;28;20261;-87
2022/10/17 01:40:37;;;;;;;5.10;2.40;;;;;;;;;;5035796;28;20609;-87
2022/10/17 01:43:05;;;;;;;9.23;2.60;;;;;;;;;;5035224;28;20717;-87
2022/10/17 01:45:34;;;;;;;3.23;2.57;;;;;;;;;;5035457;28;20215;-86
2022/10/17 01:48:06;;;;;;;3.97;2.57;;;;;;;;;;5034993;28;20239;-87
2022/10/17 01:50:34;;;;;;;4.40;2.30;;;;;;;;;;5035384;28;20231;-87
2022/10/17 01:53:04;;;;;;;4.10;2.60;;;;;;;;;;5034784;28;20242;-87
2022/10/17 01:55:33;;;;;;;6.23;2.53;;;;;;;;;;5035584;28;20210;-87
2022/10/17 01:58:03;;;;;;;4.43;2.70;;;;;;;;;;5036527;28;20242;-87
2022/10/17 02:00:31;;;;;;;3.17;2.87;;;;;;;;;;5055462;28;20202;-87
2022/10/17 02:03:00;;;;;;;7.57;4.07;;;;;;;;;;5054869;28;20244;-87
2022/10/17 02:05:31;;;;;;;4.03;3.03;;;;;;;;;;5055457;28;20210;-87
2022/10/17 02:07:58;;;;;;;7.33;3.00;;;;;;;;;;5037762;28;20593;-87
2022/10/17 02:10:31;;;;;;;4.77;3.00;;;;;;;;;;5054946;28;20222;-87
2022/10/17 02:13:02;;;;;;;6.47;2.73;;;;;;;;;;5054897;28;20246;-87
2022/10/17 02:15:38;;;;;;;5.13;3.10;;;;;;;;;;5055135;28;20556;-87
2022/10/17 02:18:09;;;;;;;6.43;2.90;;;;;;;;;;5038732;28;20234;-87
2022/10/17 02:20:41;;;;;;;4.10;3.40;;;;;;;;;;5035486;28;20187;-87
2022/10/17 02:23:12;;;;;;;11.07;3.10;;;;;;;;;;5049896;28;20249;-87
2022/10/17 02:25:41;;;;;;;4.07;2.90;;;;;;;;;;5054852;28;20225;-87
2022/10/17 02:28:14;;;;;;;6.20;2.97;;;;;;;;;;5053870;28;20248;-87
2022/10/17 02:30:42;;;;;;;3.80;2.70;;;;;;;;;;5049406;28;20572;-87
2022/10/17 02:33:12;;;;;;;5.47;3.00;;;;;;;;;;5034183;28;20317;-87
2022/10/17 02:35:44;;;;;;;6.07;2.80;;;;;;;;;;5044965;28;20213;-87
2022/10/17 02:38:12;;;;;;;8.33;2.57;;;;;;;;;;5053862;28;20238;-87
2022/10/17 02:40:40;;;;;;;2.60;2.40;;;;;;;;;;5038777;28;20211;-87
2022/10/17 02:43:08;;;;;;;3.97;2.70;;;;;;;;;;5033699;28;20230;-87
2022/10/17 02:45:36;;;;;;;3.70;2.63;;;;;;;;;;5034979;28;20218;-87
2022/10/17 02:48:05;;;;;;;2.40;2.30;;;;;;;;;;5033707;28;20245;-87
2022/10/17 02:50:38;;;;;;;4.50;2.70;;;;;;;;;;5038051;28;20218;-87
2022/10/17 02:53:09;;;;;;;2.60;2.40;;;;;;;;;;5053604;28;20240;-87
2022/10/17 02:55:39;;;;;;;6.30;2.83;;;;;;;;;;5041610;28;20194;-87
2022/10/17 02:58:08;;;;;;;4.53;3.07;;;;;;;;;;5033520;28;20239;-87
2022/10/17 03:00:36;;;;;;;4.00;3.03;;;;;;;;;;5036467;28;20202;-87
2022/10/17 03:03:18;;;;;;;5.13;2.73;;;;;;;;;;5053619;28;20592;-87
2022/10/17 03:05:45;;;;;;;2.93;2.73;;;;;;;;;;5054300;28;20201;-87
2022/10/17 03:08:14;;;;;;;5.33;2.80;;;;;;;;;;5044145;28;20239;-87
2022/10/17 03:10:41;;;;;;;4.00;2.80;;;;;;;;;;5033823;28;20237;-87
2022/10/17 03:13:08;;;;;;;8.30;3.40;;;;;;;;;;5033383;28;20242;-87
2022/10/17 03:15:35;;;;;;;6.83;3.30;;;;;;;;;;5053731;28;20554;-87
2022/10/17 03:18:02;;;;;;;3.93;2.97;;;;;;;;;;5045649;28;20413;-87
2022/10/17 03:20:29;;;;;;;5.23;3.10;;;;;;;;;;5034347;28;20211;-87
2022/10/17 03:22:56;;;;;;;4.53;3.23;;;;;;;;;;5033422;28;20245;-87
2022/10/17 03:25:25;;;;;;;3.93;3.57;;;;;;;;;;5053227;28;20210;-87
2022/10/17 03:27:53;;;;;;;8.60;3.40;;;;;;;;;;5053131;28;20612;-88
2022/10/17 03:30:20;;;;;;;10.13;3.53;;;;;;;;;;5053464;28;20586;-88
2022/10/17 03:32:47;;;;;;;3.40;3.20;;;;;;;;;;5053317;28;20230;-88
2022/10/17 03:35:14;;;;;;;6.70;3.37;;;;;;;;;;5053793;28;20217;-88
2022/10/17 03:37:41;;;;;;;8.47;3.43;;;;;;;;;;5059841;28;20244;-88
2022/10/17 03:40:08;;;;;;;9.17;4.03;;;;;;;;;;5054787;28;20575;-88
2022/10/17 03:42:37;;;;;;;3.30;2.77;;;;;;;;;;5054244;28;20226;-88
2022/10/17 03:45:04;;;;;;;5.33;3.30;;;;;;;;;;5054324;28;20206;-89
2022/10/17 03:47:31;;;;;;;4.23;3.30;;;;;;;;;;5053104;28;20233;-88
2022/10/17 03:49:58;;;;;;;5.97;3.23;;;;;;;;;;5053397;28;20225;-88
2022/10/17 03:52:25;;;;;;;4.33;3.13;;;;;;;;;;5052864;28;20234;-88
2022/10/17 03:54:52;;;;;;;4.97;3.43;;;;;;;;;;5052506;28;20213;-89
2022/10/17 03:57:20;;;;;;;7.33;3.27;;;;;;;;;;5052437;28;20713;-88
2022/10/17 03:59:48;;;;;;;4.90;3.63;;;;;;;;;;5053101;28;20229;-88
2022/10/17 04:02:15;;;;;;;5.90;3.10;;;;;;;;;;5044374;28;20230;-88
2022/10/17 04:04:42;;;;;;;3.30;3.00;;;;;;;;;;5052904;28;20900;-89
2022/10/17 04:07:09;;;;;;;5.63;3.27;;;;;;;;;;5052067;28;20686;-89
2022/10/17 04:09:36;;;;;;;3.60;3.20;;;;;;;;;;5052755;28;20690;-89
2022/10/17 04:12:04;;;;;;;4.70;3.40;;;;;;;;;;5053120;28;20681;-88
2022/10/17 04:14:31;;;;;;;8.07;3.13;;;;;;;;;;5053019;28;20213;-90
2022/10/17 04:16:59;;;;;;;3.20;2.90;;;;;;;;;;5052583;28;20217;-89
2022/10/17 04:19:26;;;;;;;3.80;3.50;;;;;;;;;;5052541;28;20241;-89
2022/10/17 04:21:53;;;;;;;3.97;3.67;;;;;;;;;;5052191;28;20202;-88
2022/10/17 04:24:20;;;;;;;7.27;3.40;;;;;;;;;;5052554;28;20198;-89
2022/10/17 04:26:49;;;;;;;5.10;3.30;;;;;;;;;;5052573;28;20663;-88
2022/10/17 04:29:17;;;;;;;6.87;3.40;;;;;;;;;;5052216;28;20232;-89
2022/10/17 04:31:44;;;;;;;9.67;3.37;;;;;;;;;;5052466;28;20226;-88
2022/10/17 04:34:13;;;;;;;7.97;4.47;;;;;;;;;;5052060;28;20595;-88
2022/10/17 04:36:40;;;;;;;7.47;3.80;;;;;;;;;;5052367;28;20217;-89
2022/10/17 04:39:08;;;;;;;7.67;3.20;;;;;;;;;;5050500;28;20241;-88
2022/10/17 04:41:35;;;;;;;7.03;3.90;;;;;;;;;;5052413;28;20206;-88
2022/10/17 04:44:02;;;;;;;4.83;3.47;;;;;;;;;;5051612;28;20303;-88
2022/10/17 04:46:29;;;;;;;3.83;3.40;;;;;;;;;;5052316;28;20225;-88
2022/10/17 04:48:56;;;;;;;6.63;3.40;;;;;;;;;;5051529;28;20233;-88
2022/10/17 04:51:25;;;;;;;3.70;3.40;;;;;;;;;;5052060;28;20229;-88
2022/10/17 04:53:53;;;;;;;7.63;3.40;;;;;;;;;;5051357;28;20864;-89
2022/10/17 04:56:22;;;;;;;10.67;3.70;;;;;;;;;;5051617;28;20210;-89
2022/10/17 04:58:49;;;;;;;4.73;3.60;;;;;;;;;;5051240;28;20238;-89
2022/10/17 05:01:17;;;;;;;3.97;3.40;;;;;;;;;;5052127;28;20210;-90
2022/10/17 05:03:45;;;;;;;10.40;6.40;;;;;;;;;;5051749;28;20244;-90
2022/10/17 05:06:14;;;;;;;8.03;3.70;;;;;;;;;;5051916;28;20213;-89
2022/10/17 05:08:42;;;;;;;9.97;3.47;;;;;;;;;;5051000;28;20241;-88
2022/10/17 05:11:16;;;;;;;7.93;3.40;;;;;;;;;;5051769;28;20875;-88
2022/10/17 05:13:43;;;;;;;4.80;3.90;;;;;;;;;;5051398;28;20234;-89
2022/10/17 05:16:10;;;;;;;12.37;4.13;;;;;;;;;;5052002;28;20209;-88
2022/10/17 05:18:37;;;;;;;9.53;3.83;;;;;;;;;;5050809;28;20234;-88
2022/10/17 05:21:04;;;;;;;7.43;4.10;;;;;;;;;;5051513;28;20206;-87
2022/10/17 05:23:31;;;;;;;8.53;4.07;;;;;;;;;;5051286;28;20252;-88
2022/10/17 05:26:00;;;;;;;7.10;3.87;;;;;;;;;;5051275;28;20214;-87
2022/10/17 05:28:27;;;;;;;10.53;3.67;;;;;;;;;;5050419;28;20245;-88
2022/10/17 05:30:54;;;;;;;9.03;5.00;;;;;;;;;;5051614;28;20210;-87
2022/10/17 05:33:23;;;;;;;6.60;3.80;;;;;;;;;;5051061;28;20234;-87
2022/10/17 05:35:50;;;;;;;4.60;3.80;;;;;;;;;;5051458;28;20272;-87
2022/10/17 05:38:17;;;;;;;6.07;3.67;;;;;;;;;;5050753;28;20823;-87
2022/10/17 05:40:44;;;;;;;8.83;3.60;;;;;;;;;;5051594;28;20212;-87
2022/10/17 05:43:13;;;;;;;5.30;3.70;;;;;;;;;;5051419;28;20238;-87
2022/10/17 05:45:40;;;;;;;10.80;4.00;;;;;;;;;;5051663;28;20214;-87
2022/10/17 05:48:08;;;;;;;5.57;3.90;;;;;;;;;;5050729;28;20237;-87
2022/10/17 05:50:35;;;;;;;5.10;4.60;;;;;;;;;;5051508;28;20280;-87
2022/10/17 05:53:02;;;;;;;8.53;3.90;;;;;;;;;;5043139;28;20238;-86
2022/10/17 05:55:29;;;;;;;7.87;3.83;;;;;;;;;;5045924;28;20218;-87
2022/10/17 05:57:57;;;;;;;7.07;3.60;;;;;;;;;;5050380;28;20237;-87
2022/10/17 06:00:25;;;;;;;7.30;4.17;;;;;;;;;;5032903;28;20228;-87
2022/10/17 06:02:53;;;;;;;6.63;4.13;;;;;;;;;;5040714;28;20238;-87
2022/10/17 06:05:20;;;;;;;7.70;4.43;;;;;;;;;;5036259;28;20210;-87
2022/10/17 06:07:48;;;;;;;6.97;3.87;;;;;;;;;;5030118;28;20272;-87
2022/10/17 06:10:16;;;;;;;8.87;3.97;;;;;;;;;;5031171;28;20210;-86
2022/10/17 06:12:43;;;;;;;6.60;4.20;;;;;;;;;;5030369;28;20230;-86
2022/10/17 06:15:10;;;;;;;8.53;4.20;;;;;;;;;;5031070;28;20195;-87
2022/10/17 06:17:39;;;;;;;8.40;6.13;;;;;;;;;;5030210;28;20235;-87
2022/10/17 06:20:06;;;;;;;7.80;4.77;;;;;;;;;;5034573;28;20194;-86
2022/10/17 06:22:33;;;;;;;7.00;4.47;;;;;;;;;;5050466;28;20228;-87
2022/10/17 06:25:01;;;;;;;10.53;5.30;;;;;;;;;;5054526;28;20232;-87
2022/10/17 06:27:28;;;;;;;5.00;4.60;;;;;;;;;;5053293;28;20230;-87
2022/10/17 06:29:55;;;;;;;5.47;4.90;;;;;;;;;;5054267;28;20202;-87
2022/10/17 06:32:22;;;;;;;9.30;5.43;;;;;;;;;;5053131;28;20240;-87
2022/10/17 06:34:50;;;;;;;7.40;6.30;;;;;;;;;;5053938;28;20689;-87
2022/10/17 06:37:17;;;;;;;8.00;5.67;;;;;;;;;;5053242;28;20237;-87
2022/10/17 06:39:44;;;;;;;12.23;5.63;;;;;;;;;;5053470;28;20226;-87
2022/10/17 06:42:11;;;;;;;8.00;5.40;;;;;;;;;;5053410;28;20811;-87
2022/10/17 06:44:40;;;;;;;12.60;6.13;;;;;;;;;;5054200;28;20241;-87
2022/10/17 06:47:07;;;;;;;9.20;5.80;;;;;;;;;;5053448;28;20256;-87
2022/10/17 06:49:34;;;;;;;10.60;6.50;;;;;;;;;;5053509;28;20230;-87
2022/10/17 06:52:02;;;;;;;11.07;6.10;;;;;;;;;;5053090;28;20598;-87
2022/10/17 06:54:29;;;;;;;8.47;6.10;;;;;;;;;;5053894;28;20206;-86
2022/10/17 06:56:56;;;;;;;10.60;6.10;;;;;;;;;;5053591;28;20210;-87
2022/10/17 06:59:23;;;;;;;9.33;7.03;;;;;;;;;;5053423;28;20229;-87
2022/10/17 07:01:50;;;;;;;9.03;6.50;;;;;;;;;;5053254;28;20191;-87
2022/10/17 07:04:18;;;;;;;10.20;6.37;;;;;;;;;;5053753;28;20210;-87
2022/10/17 07:06:45;;;;;;;20.73;9.37;;;;;;;;;;5051829;28;20206;-86
2022/10/17 07:09:14;;;;;;;10.27;7.20;;;;;;;;;;5044526;28;20234;-86
2022/10/17 07:11:41;;;;;;;15.17;7.50;;;;;;;;;;5053168;28;20341;-87
2022/10/17 07:14:08;;;;;;;15.87;8.70;;;;;;;;;;5052597;28;20722;-87
2022/10/17 07:16:35;;;;;;;13.70;8.93;;;;;;;;;;5056073;28;20222;-93
2022/10/17 07:19:02;;;;;;;13.20;8.77;;;;;;;;;;5060706;28;20242;-94
2022/10/17 07:21:29;;;;;;;15.37;9.60;;;;;;;;;;5063600;28;20202;-94
2022/10/17 07:23:57;;;;;;;17.77;9.53;;;;;;;;;;5060388;28;20712;-95
2022/10/17 07:26:26;;;;;;;17.20;10.97;;;;;;;;;;5060119;28;20293;-94
2022/10/17 07:28:54;;;;;;;18.77;12.10;;;;;;;;;;5058659;28;20242;-95
2022/10/17 07:31:22;;;;;;;15.87;11.23;;;;;;;;;;5059977;28;20222;-95
2022/10/17 07:33:50;;;;;;;19.87;12.07;;;;;;;;;;5060471;28;20234;-94
2022/10/17 07:36:17;;;;;;;19.30;12.67;;;;;;;;;;5058840;28;20301;-94
2022/10/17 07:38:45;;;;;;;19.60;14.20;;;;;;;;;;5057774;28;20261;-94
2022/10/17 07:41:12;;;;;;;23.00;14.33;;;;;;;;;;5057872;28;20202;-94
2022/10/17 07:43:41;;;;;;;24.33;14.87;;;;;;;;;;5059318;28;20260;-93
2022/10/17 07:46:10;;;;;;;24.83;15.80;;;;;;;;;;5059589;28;20214;-94
2022/10/17 07:48:37;;;;;;;24.07;17.50;;;;;;;;;;5059846;28;20241;-94
2022/10/17 07:51:05;;;;;;;29.97;19.37;;;;;;;;;;5059301;28;20222;-95
2022/10/17 07:53:33;;;;;;;30.00;19.47;;;;;;;;;;5056786;28;20720;-94
2022/10/17 07:56:00;;;;;;;23.07;18.83;;;;;;;;;;5057198;28;20214;-94
2022/10/17 07:58:28;;;;;;;27.40;19.37;;;;;;;;;;5056526;28;20240;-94
2022/10/17 08:01:00;;;;;;;31.33;20.07;;;;;;;;;;5058535;28;20224;-95
2022/10/17 08:03:27;;;;;;;22.93;19.57;;;;;;;;;;5058894;28;20237;-95
2022/10/17 08:05:57;;;;;;;27.60;21.43;;;;;;;;;;5057991;28;20206;-95
2022/10/17 08:08:25;;;;;;;31.07;22.73;;;;;;;;;;5057362;28;20244;-95
2022/10/17 08:10:52;;;;;;;27.60;21.53;;;;;;;;;;5055790;28;20218;-95
2022/10/17 08:13:19;;;;;;;27.37;21.03;;;;;;;;;;5056073;28;20240;-95
2022/10/17 08:15:46;;;;;;;31.67;22.40;;;;;;;;;;5056676;28;20549;-94
2022/10/17 08:18:15;;;;;;;28.43;21.87;;;;;;;;;;5056183;28;20238;-95
2022/10/17 08:20:42;;;;;;;27.37;22.97;;;;;;;;;;5056878;28;20206;-95
2022/10/17 08:23:09;;;;;;;28.20;18.50;;;;;;;;;;5057470;28;20246;-94
2022/10/17 08:25:38;;;;;;;28.93;19.93;;;;;;;;;;5056421;28;20202;-95
2022/10/17 08:28:05;;;;;;;29.07;20.63;;;;;;;;;;5057583;28;20240;-95
2022/10/17 08:30:32;;;;;;;27.90;22.50;;;;;;;;;;5057972;28;20293;-95
2022/10/17 08:32:59;;;;;;;27.40;23.63;;;;;;;;;;5056018;28;20237;-94
2022/10/17 08:35:28;;;;;;;27.83;23.90;;;;;;;;;;5057847;28;20210;-95
2022/10/17 08:37:55;;;;;;;30.20;22.23;;;;;;;;;;5054934;28;20260;-95
2022/10/17 08:40:25;;;;;;;32.10;23.10;;;;;;;;;;5054362;28;20206;-95
2022/10/17 08:43:01;;;;;;;31.70;22.83;;;;;;;;;;5053763;28;20237;-94
2022/10/17 08:45:30;;;;;;;28.47;23.23;;;;;;;;;;5055819;28;20220;-95
2022/10/17 08:47:59;;;;;;;27.97;22.93;;;;;;;;;;5057287;28;20236;-95
2022/10/17 08:50:37;;;;;;;28.63;22.10;;;;;;;;;;5060054;28;20293;-93
2022/10/17 08:53:08;;;;;;;28.27;22.30;;;;;;;;;;5056696;28;20249;-95
2022/10/17 08:55:37;;;;;;;30.57;21.90;;;;;;;;;;5056954;28;20622;-94
2022/10/17 08:58:13;;;;;;;32.33;22.63;;;;;;;;;;5053870;28;20242;-94
2022/10/17 09:00:42;;;;;;;29.07;22.27;;;;;;;;;;5053426;28;20247;-94
2022/10/17 09:03:13;;;;;;;27.53;20.50;;;;;;;;;;5053005;28;20237;-94
2022/10/17 09:05:48;;;;;;;26.47;20.93;;;;;;;;;;5053630;28;20216;-94
2022/10/17 09:08:23;;;;;;;25.90;20.67;;;;;;;;;;5052520;28;20710;-94
2022/10/17 09:10:54;;;;;;;29.53;20.27;;;;;;;;;;5053125;28;20186;-94
2022/10/17 09:13:27;;;;;;;24.70;20.27;;;;;;;;;;5052751;28;20709;-94
2022/10/17 09:16:01;;;;;;;28.73;19.53;;;;;;;;;;5054391;28;20202;-94
2022/10/17 09:18:31;;;;;;;25.87;18.00;;;;;;;;;;5053043;28;20249;-94
2022/10/17 09:23:33;;;;;;;19.93;16.07;;;;;;;;;;5030280;28;20223;-91
2022/10/17 09:26:01;;;;;;;19.43;16.53;;;;;;;;;;5037566;28;20214;-91
2022/10/17 09:28:31;;;;;;;22.20;18.03;;;;;;;;;;5032748;28;20234;-93
2022/10/17 09:31:01;;;;;;;22.53;17.60;;;;;;;;;;5033363;28;20203;-93
2022/10/17 09:33:29;;;;;;;20.87;18.23;;;;;;;;;;5032621;28;20237;-93
2022/10/17 09:35:57;;;;;;;24.33;15.90;;;;;;;;;;5033219;28;20211;-92
2022/10/17 09:38:26;;;;;;;20.60;15.40;;;;;;;;;;5032623;28;20246;-94
2022/10/17 09:40:56;;;;;;;19.07;15.90;;;;;;;;;;5032768;28;20195;-93
2022/10/17 09:43:25;;;;;;;19.53;13.87;;;;;;;;;;5032106;28;20250;-92
2022/10/17 09:46:00;;;;;;;14.48;12.75;;;;;;;;;;5032380;28;20207;-89
2022/10/17 09:48:31;;;;;;;11.98;10.75;;;;;;;;;;5031192;28;20693;-89
2022/10/17 09:50:58;;;;;;;10.18;9.18;;;;;;;;;;5032640;28;20195;-89
2022/10/17 09:53:27;;;;;;;11.70;8.52;;;;;;;;;;5033349;28;20733;-92
2022/10/17 09:55:57;;;;;;;7.93;7.13;;;;;;;;;;5035649;28;20214;-92
2022/10/17 09:58:25;;;;;;;11.73;6.85;;;;;;;;;;5034864;28;20238;-93
2022/10/17 10:00:52;;;;;;;7.65;6.15;;;;;;;;;;5036615;28;20210;-92
2022/10/17 10:03:20;;;;;;;7.93;5.07;;;;;;;;;;5035176;28;20234;-92
2022/10/17 10:05:59;;;;;;;5.43;4.78;;;;;;;;;;5036117;28;20233;-92
2022/10/17 10:08:28;;;;;;;10.88;5.10;;;;;;;;;;5035348;28;20261;-93
2022/10/17 10:11:02;;;;;;;7.38;4.75;;;;;;;;;;5036169;28;20211;-90
2022/10/17 10:13:29;;;;;;;8.90;4.53;;;;;;;;;;5034752;28;20237;-91
2022/10/17 10:16:13;;;;;;;3.20;2.90;;;;;;;;;;5034430;28;20214;-92
2022/10/17 10:18:40;;;;;;;6.68;2.53;;;;;;;;;;5035246;28;20238;-92
2022/10/17 10:21:09;;;;;;;2.55;2.30;;;;;;;;;;5034245;28;20213;-91
2022/10/17 10:23:38;;;;;;;4.15;2.78;;;;;;;;;;5034964;28;20242;-92
2022/10/17 10:26:15;;;;;;;4.53;2.42;;;;;;;;;;5035495;28;20585;-92
2022/10/17 10:28:51;;;;;;;7.43;3.40;;;;;;;;;;5034956;28;20242;-91
2022/10/17 10:31:25;;;;;;;4.70;3.22;;;;;;;;;;5034953;28;20294;-92
2022/10/17 10:33:53;;;;;;;2.90;2.55;;;;;;;;;;5034179;28;20701;-91
2022/10/17 10:36:21;;;;;;;11.25;2.60;;;;;;;;;;5034818;28;20207;-91
2022/10/17 10:38:52;;;;;;;4.00;2.28;;;;;;;;;;5034112;28;20298;-91
2022/10/17 10:41:21;;;;;;;4.82;2.22;;;;;;;;;;5034904;28;20702;-92
2022/10/17 10:43:49;;;;;;;3.80;2.38;;;;;;;;;;5034516;28;20238;-92
2022/10/17 10:46:18;;;;;;;5.80;3.05;;;;;;;;;;5037337;28;20214;-90
2022/10/17 10:48:51;;;;;;;2.22;2.03;;;;;;;;;;5034201;28;20737;-91
2022/10/17 10:51:22;;;;;;;4.65;2.08;;;;;;;;;;5025551;28;20208;-91
2022/10/17 10:53:52;;;;;;;2.42;2.10;;;;;;;;;;5014264;28;20727;-91
2022/10/17 10:56:21;;;;;;;2.67;1.75;;;;;;;;;;5014605;28;20203;-92
2022/10/17 10:58:53;;;;;;;6.30;1.88;;;;;;;;;;5013942;28;20243;-92
2022/10/17 11:01:23;;;;;;;2.80;1.98;;;;;;;;;;5014874;28;20192;-90
2022/10/17 11:04:08;;;;;;;1.90;1.80;;;;;;;;;;5013712;28;20238;-91
2022/10/17 11:06:36;;;;;;;2.13;1.92;;;;;;;;;;5014840;28;20212;-91
2022/10/17 11:09:12;;;;;;;5.53;1.77;;;;;;;;;;5014006;28;20249;-91
2022/10/17 11:11:42;;;;;;;3.75;1.80;;;;;;;;;;5014625;28;20225;-91
2022/10/17 11:14:12;;;;;;;2.42;1.92;;;;;;;;;;5017393;28;20719;-91
2022/10/17 11:16:42;;;;;;;4.35;1.80;;;;;;;;;;5026703;28;20211;-92
2022/10/17 11:19:13;;;;;;;2.75;2.20;;;;;;;;;;5033150;28;20718;-92
2022/10/17 11:26:55;;;;;;;3.95;1.50;;;;;;;;;;5341630;22;20232;-91
2022/10/17 11:29:26;;;;;;;2.10;1.40;;;;;;;;;;5063884;28;20225;-91
2022/10/17 11:31:54;;;;;;;1.75;1.65;;;;;;;;;;5053710;28;20613;-92
2022/10/17 11:34:23;;;;;;;1.83;1.65;;;;;;;;;;5054096;28;20217;-91
2022/10/17 11:36:54;;;;;;;1.77;1.48;;;;;;;;;;5053131;28;20209;-89
2022/10/17 11:39:28;;;;;;;1.95;1.80;;;;;;;;;;5053441;28;20237;-89
2022/10/17 11:42:00;;;;;;;2.25;1.80;;;;;;;;;;5054412;28;20193;-91
2022/10/17 11:44:29;;;;;;;2.15;1.95;;;;;;;;;;5054751;28;20237;-92
2022/10/17 11:46:57;;;;;;;1.80;1.70;;;;;;;;;;5059197;28;20213;-90
2022/10/17 11:49:27;;;;;;;4.18;1.90;;;;;;;;;;5055054;28;20229;-91
2022/10/17 11:51:55;;;;;;;3.60;1.50;;;;;;;;;;5055201;28;20210;-91
2022/10/17 11:54:25;;;;;;;3.28;1.70;;;;;;;;;;5054913;28;20210;-91
2022/10/17 11:57:03;;;;;;;3.95;1.90;;;;;;;;;;5053982;28;20206;-90
2022/10/17 11:59:45;;;;;;;1.90;1.45;;;;;;;;;;5053892;28;20226;-91
2022/10/17 12:02:16;;;;;;;2.00;1.83;;;;;;;;;;5054353;28;20283;-92
2022/10/17 12:04:48;;;;;;;3.00;1.70;;;;;;;;;;5054156;28;20197;-91
2022/10/17 12:07:18;;;;;;;2.65;1.80;;;;;;;;;;5054529;28;20241;-90
2022/10/17 12:09:48;;;;;;;2.15;1.60;;;;;;;;;;5055723;28;20237;-89
2022/10/17 12:12:24;;;;;;;2.20;1.67;;;;;;;;;;5055810;28;20608;-93
2022/10/17 12:14:53;;;;;;;3.22;1.60;;;;;;;;;;5054839;28;20212;-91
2022/10/17 12:17:32;;;;;;;1.70;1.40;;;;;;;;;;5052377;28;20697;-91
2022/10/17 12:20:26;;;;;;;6.25;2.10;;;;;;;;;;5052728;28;20696;-86
2022/10/17 12:22:54;;;;;;;2.28;1.50;;;;;;;;;;5051812;28;20233;-86
2022/10/17 12:25:23;;;;;;;2.50;2.03;;;;;;;;;;5051853;28;20206;-91
2022/10/17 12:27:50;;;;;;;4.25;1.70;;;;;;;;;;5051315;28;20466;-87
2022/10/17 12:30:26;;;;;;;5.00;1.77;;;;;;;;;;5051933;28;20296;-87
2022/10/17 12:33:02;;;;;;;3.90;1.70;;;;;;;;;;5051541;28;20255;-87
2022/10/17 12:35:30;;;;;;;2.47;1.70;;;;;;;;;;5051977;28;20260;-87
2022/10/17 12:38:17;;;;;;;3.38;1.85;;;;;;;;;;5051250;28;20244;-86
2022/10/17 12:40:49;;;;;;;2.83;1.70;;;;;;;;;;5051897;28;20558;-87
2022/10/17 12:43:37;;;;;;;8.75;2.08;;;;;;;;;;5049767;28;20236;-88
2022/10/17 12:46:05;;;;;;;3.47;1.42;;;;;;;;;;5051647;28;20570;-87
2022/10/17 12:48:51;;;;;;;1.45;1.35;;;;;;;;;;5050962;28;20237;-87
2022/10/17 12:51:20;;;;;;;2.08;1.88;;;;;;;;;;5051873;28;20209;-87
2022/10/17 12:53:50;;;;;;;2.70;1.80;;;;;;;;;;5051123;28;20237;-87
2022/10/17 12:56:19;;;;;;;3.35;2.17;;;;;;;;;;5051826;28;20198;-87
2022/10/17 12:58:47;;;;;;;2.85;1.80;;;;;;;;;;5050622;28;20309;-87
2022/10/17 13:01:18;;;;;;;4.00;1.70;;;;;;;;;;5051700;28;20214;-87
2022/10/17 13:03:46;;;;;;;3.45;1.73;;;;;;;;;;5051132;28;20241;-88
2022/10/17 13:06:16;;;;;;;2.97;1.60;;;;;;;;;;5051799;28;20217;-87
2022/10/17 13:08:44;;;;;;;3.63;2.22;;;;;;;;;;5050735;28;20242;-88
2022/10/17 13:11:12;;;;;;;4.00;2.03;;;;;;;;;;5051349;28;20206;-88
2022/10/17 13:13:42;;;;;;;4.63;1.90;;;;;;;;;;5051184;28;20355;-87
2022/10/17 13:16:09;;;;;;;6.40;3.22;;;;;;;;;;5051583;28;20201;-88
2022/10/17 13:18:38;;;;;;;5.93;2.20;;;;;;;;;;5051000;28;20249;-77
2022/10/17 13:21:06;;;;;;;3.88;1.80;;;;;;;;;;5050993;28;20579;-77
2022/10/17 13:23:34;;;;;;;3.72;2.10;;;;;;;;;;5050457;28;20607;-76
2022/10/17 13:26:13;;;;;;;3.00;2.00;;;;;;;;;;5050691;28;20213;-76
2022/10/17 13:28:40;;;;;;;3.50;1.98;;;;;;;;;;5054301;28;20237;-75
2022/10/17 13:31:08;;;;;;;4.10;2.10;;;;;;;;;;5054787;28;20216;-76
2022/10/17 13:33:38;;;;;;;3.85;2.28;;;;;;;;;;5051408;28;20226;-76
2022/10/17 13:36:08;;;;;;;3.58;2.20;;;;;;;;;;5048916;28;20694;-77
2022/10/17 13:38:36;;;;;;;2.05;1.90;;;;;;;;;;5054231;28;20249;-76
2022/10/17 13:41:03;;;;;;;5.10;2.00;;;;;;;;;;5054857;28;20229;-77
2022/10/17 13:43:32;;;;;;;4.43;2.42;;;;;;;;;;5054285;28;20713;-78
2022/10/17 13:46:02;;;;;;;3.33;2.00;;;;;;;;;;5054971;28;20205;-77
2022/10/17 13:48:31;;;;;;;5.32;2.25;;;;;;;;;;5071714;28;20240;-77
2022/10/17 13:50:59;;;;;;;3.22;1.90;;;;;;;;;;5074797;28;20216;-77
2022/10/17 13:53:30;;;;;;;4.40;2.13;;;;;;;;;;5074112;28;20236;-77
2022/10/17 13:55:59;;;;;;;7.78;2.75;;;;;;;;;;5074416;28;20213;-76
2022/10/17 13:58:27;;;;;;;2.35;2.10;;;;;;;;;;5073619;28;20275;-76
2022/10/17 14:00:55;;;;;;;2.95;1.75;;;;;;;;;;5074595;28;20209;-76
2022/10/17 14:03:23;;;;;;;3.90;2.17;;;;;;;;;;5074062;28;20332;-77
2022/10/17 14:06:01;;;;;;;4.18;2.38;;;;;;;;;;5074341;28;20205;-77
2022/10/17 14:08:30;;;;;;;4.30;1.80;;;;;;;;;;5073354;28;20237;-77
2022/10/17 14:10:57;;;;;;;5.38;2.00;;;;;;;;;;5074499;28;20228;-76
2022/10/17 14:13:26;;;;;;;4.68;2.05;;;;;;;;;;5073564;28;20236;-76
2022/10/17 14:15:54;;;;;;;3.65;2.10;;;;;;;;;;5074229;28;20205;-76
2022/10/17 14:18:23;;;;;;;2.25;1.85;;;;;;;;;;5073186;28;20240;-76
2022/10/17 14:20:51;;;;;;;2.75;2.50;;;;;;;;;;5065847;28;20202;-76
2022/10/17 14:23:29;;;;;;;2.83;2.08;;;;;;;;;;5051338;28;20226;-76
2022/10/17 14:26:06;;;;;;;3.75;2.20;;;;;;;;;;5053143;28;20698;-77
2022/10/17 14:28:33;;;;;;;4.25;2.10;;;;;;;;;;5052451;28;20257;-76
2022/10/17 14:31:12;;;;;;;7.32;3.25;;;;;;;;;;5053981;28;20210;-77
2022/10/17 14:33:43;;;;;;;3.20;2.20;;;;;;;;;;5053457;28;20234;-77
2022/10/17 14:36:10;;;;;;;3.92;2.28;;;;;;;;;;5053518;28;20213;-76
2022/10/17 14:38:37;;;;;;;4.97;1.73;;;;;;;;;;5051328;28;20698;-76
2022/10/17 14:41:07;;;;;;;4.57;2.30;;;;;;;;;;5053643;28;20206;-76
2022/10/17 14:43:34;;;;;;;6.30;2.30;;;;;;;;;;5053394;28;20291;-77
2022/10/17 14:46:02;;;;;;;4.78;2.10;;;;;;;;;;5054096;28;20221;-78
2022/10/17 14:48:30;;;;;;;4.25;2.10;;;;;;;;;;5053043;28;20238;-77
2022/10/17 14:51:07;;;;;;;3.38;1.92;;;;;;;;;;5053952;28;20202;-77
2022/10/17 14:53:34;;;;;;;6.35;2.50;;;;;;;;;;5053465;28;20230;-77
2022/10/17 14:56:02;;;;;;;2.40;2.17;;;;;;;;;;5041162;28;20202;-77
2022/10/17 14:58:32;;;;;;;3.30;2.60;;;;;;;;;;5038634;28;20654;-77